createdAt,value
2022-12-17T00:02:46.561Z,0.46
2022-12-17T00:05:51.852Z,0.45
2022-12-17T00:08:57.279Z,0.47
2022-12-17T00:12:02.561Z,0.34
2022-12-17T00:15:07.937Z,0.27
2022-12-17T00:18:20.330Z,0.31
2022-12-17T00:21:27.266Z,0.18
2022-12-17T00:24:32.766Z,0.16
2022-12-17T00:27:38.028Z,0.14
2022-12-17T00:30:43.153Z,-0.05
2022-12-17T00:33:50.525Z,0.12
2022-12-17T00:36:55.928Z,0.21
2022-12-17T00:40:01.345Z,0.23
2022-12-17T00:43:06.539Z,0.18
2022-12-17T00:46:12.753Z,0.18
2022-12-17T00:49:18.407Z,0.22
2022-12-17T00:52:23.540Z,0.23
2022-12-17T00:55:30.057Z,0.20
2022-12-17T00:58:35.461Z,0.15
2022-12-17T01:01:40.750Z,0.19
2022-12-17T01:04:46.009Z,0.17
2022-12-17T01:07:51.139Z,0.19
2022-12-17T01:10:57.127Z,0.23
2022-12-17T01:14:16.311Z,0.24
2022-12-17T01:17:21.538Z,0.18
2022-12-17T01:20:26.747Z,0.10
2022-12-17T01:23:31.776Z,0.09
2022-12-17T01:26:36.927Z,0.12
2022-12-17T01:29:42.117Z,0.06
2022-12-17T01:32:47.607Z,0.15
2022-12-17T01:35:52.976Z,0.18
2022-12-17T01:38:58.336Z,0.14
2022-12-17T01:42:03.641Z,0.17
2022-12-17T01:45:11.626Z,0.03
2022-12-17T01:48:26.651Z,0.03
2022-12-17T01:51:33.117Z,0.06
2022-12-17T01:54:38.479Z,0.03
2022-12-17T01:57:44.321Z,-0.02
2022-12-17T02:00:49.675Z,-0.06
2022-12-17T02:03:55.060Z,-0.10
2022-12-17T02:07:06.555Z,-0.09
2022-12-17T02:10:18.295Z,-0.16
2022-12-17T02:13:29.107Z,-0.20
2022-12-17T02:16:39.490Z,-0.12
2022-12-17T02:20:07.296Z,-0.04
2022-12-17T02:23:12.529Z,-0.02
2022-12-17T02:26:20.694Z,0.06
2022-12-17T02:29:27.091Z,0.10
2022-12-17T02:32:33.239Z,0.09
2022-12-17T02:35:41.301Z,0.06
2022-12-17T02:38:47.797Z,-0.01
2022-12-17T02:41:59.791Z,0.03
2022-12-17T02:45:04.847Z,0.03
2022-12-17T02:48:10.250Z,0.00
2022-12-17T02:51:16.445Z,0.03
2022-12-17T02:54:22.513Z,0.07
2022-12-17T02:57:27.679Z,0.07
2022-12-17T03:00:33.360Z,0.07
2022-12-17T03:03:39.052Z,0.14
2022-12-17T03:06:44.593Z,0.07
2022-12-17T03:09:49.971Z,0.10
2022-12-17T03:12:55.364Z,0.13
2022-12-17T03:16:00.454Z,0.09
2022-12-17T03:19:13.240Z,0.13
2022-12-17T03:22:18.271Z,0.07
2022-12-17T03:25:23.480Z,0.12
2022-12-17T03:28:30.251Z,0.07
2022-12-17T03:31:35.543Z,0.01
2022-12-17T03:34:41.210Z,0.02
2022-12-17T03:37:47.410Z,0.07
2022-12-17T03:40:53.177Z,0.11
2022-12-17T03:43:58.766Z,0.10
2022-12-17T03:47:03.884Z,-0.01
2022-12-17T03:50:09.431Z,-0.16
2022-12-17T03:53:15.147Z,-0.12
2022-12-17T03:56:20.773Z,-0.07
2022-12-17T03:59:27.726Z,-0.05
2022-12-17T04:02:36.194Z,-0.17
2022-12-17T04:05:41.711Z,-0.16
2022-12-17T04:08:49.183Z,-0.11
2022-12-17T04:11:57.868Z,-0.02
2022-12-17T04:15:03.641Z,-0.07
2022-12-17T04:18:09.152Z,-0.01
2022-12-17T04:21:17.371Z,-0.06
2022-12-17T04:24:23.567Z,-0.11
2022-12-17T04:27:29.015Z,-0.24
2022-12-17T04:30:34.258Z,-0.21
2022-12-17T04:33:39.622Z,-0.20
2022-12-17T04:36:45.239Z,-0.13
2022-12-17T04:39:50.799Z,-0.12
2022-12-17T04:42:56.742Z,-0.21
2022-12-17T04:46:03.445Z,-0.27
2022-12-17T04:49:08.972Z,-0.29
2022-12-17T04:52:14.307Z,-0.28
2022-12-17T04:55:20.094Z,-0.28
2022-12-17T04:58:25.818Z,-0.44
2022-12-17T05:01:36.081Z,-0.43
2022-12-17T05:04:41.710Z,-0.53
2022-12-17T05:07:47.244Z,-0.50
2022-12-17T05:10:52.823Z,-0.55
2022-12-17T05:13:58.079Z,-0.50
2022-12-17T05:17:03.335Z,-0.49
2022-12-17T05:20:11.330Z,-0.49
2022-12-17T05:23:22.384Z,-0.57
2022-12-17T05:26:36.530Z,-1.00
2022-12-17T05:29:41.634Z,-1.17
2022-12-17T05:32:47.151Z,-1.11
2022-12-17T05:35:52.266Z,-1.02
2022-12-17T05:38:57.894Z,-1.01
2022-12-17T05:42:03.548Z,-1.02
2022-12-17T05:45:11.130Z,-1.16
2022-12-17T05:48:17.255Z,-1.15
2022-12-17T05:51:22.447Z,-1.08
2022-12-17T05:54:27.752Z,-0.99
2022-12-17T05:57:33.220Z,-1.13
2022-12-17T06:00:39.650Z,-1.08
2022-12-17T06:03:45.413Z,-1.08
2022-12-17T06:06:51.178Z,-0.98
2022-12-17T06:09:56.837Z,-1.07
2022-12-17T06:13:02.174Z,-1.05
2022-12-17T06:16:08.377Z,-1.01
2022-12-17T06:19:13.867Z,-0.88
2022-12-17T06:22:19.221Z,-0.98
2022-12-17T06:25:24.614Z,-1.08
2022-12-17T06:28:30.161Z,-1.24
2022-12-17T06:31:36.646Z,-1.32
2022-12-17T06:34:42.148Z,-1.22
2022-12-17T06:37:48.127Z,-1.23
2022-12-17T06:40:56.230Z,-1.33
2022-12-17T06:44:01.714Z,-1.33
2022-12-17T06:47:10.130Z,-1.48
2022-12-17T06:50:18.388Z,-1.37
2022-12-17T06:53:24.772Z,-1.33
2022-12-17T06:56:30.094Z,-1.37
2022-12-17T06:59:35.576Z,-1.39
2022-12-17T07:02:41.135Z,-1.55
2022-12-17T07:05:46.737Z,-1.54
2022-12-17T07:08:56.903Z,-1.46
2022-12-17T07:12:03.569Z,-1.48
2022-12-17T07:15:08.976Z,-1.45
2022-12-17T07:18:41.312Z,-1.43
2022-12-17T07:21:55.132Z,-1.42
2022-12-17T07:25:13.995Z,-1.59
2022-12-17T07:28:33.172Z,-1.64
2022-12-17T07:31:38.878Z,-1.53
2022-12-17T07:34:44.427Z,-1.43
2022-12-17T07:37:49.603Z,-1.36
2022-12-17T07:40:54.986Z,-1.30
2022-12-17T07:44:00.555Z,-1.34
2022-12-17T07:47:05.867Z,-1.39
2022-12-17T07:50:11.158Z,-1.36
2022-12-17T07:53:19.971Z,-1.46
2022-12-17T07:56:25.381Z,-1.35
2022-12-17T07:59:30.833Z,-1.30
2022-12-17T08:02:36.420Z,-1.32
2022-12-17T08:05:41.647Z,-1.47
2022-12-17T08:08:47.049Z,-1.40
2022-12-17T08:11:52.125Z,-1.25
2022-12-17T08:14:57.408Z,-1.17
2022-12-17T08:18:03.070Z,-1.16
2022-12-17T08:21:08.691Z,-1.08
2022-12-17T08:24:14.334Z,-1.08
2022-12-17T08:27:24.703Z,-1.20
2022-12-17T08:30:30.323Z,-1.25
2022-12-17T08:33:35.822Z,-1.11
2022-12-17T08:36:41.447Z,-1.08
2022-12-17T08:39:46.379Z,-1.14
2022-12-17T08:42:51.779Z,-1.14
2022-12-17T08:45:57.494Z,-1.18
2022-12-17T08:49:02.823Z,-1.06
2022-12-17T08:52:12.813Z,-1.29
2022-12-17T08:55:18.252Z,-1.37
2022-12-17T08:58:24.874Z,-1.38
2022-12-17T09:01:30.981Z,-1.33
2022-12-17T09:04:36.645Z,-1.33
2022-12-17T09:07:42.063Z,-1.26
2022-12-17T09:10:47.907Z,-1.18
2022-12-17T09:13:53.301Z,-1.22
2022-12-17T09:16:59.205Z,-1.18
2022-12-17T09:20:04.484Z,-1.17
2022-12-17T09:23:10.992Z,-1.13
2022-12-17T09:26:16.390Z,-1.12
2022-12-17T09:29:21.610Z,-1.15
2022-12-17T09:32:26.814Z,-1.29
2022-12-17T09:35:32.004Z,-1.32
2022-12-17T09:38:37.350Z,-1.30
2022-12-17T09:41:46.156Z,-1.20
2022-12-17T09:44:59.480Z,-1.28
2022-12-17T14:20:07.404Z,-0.53
2022-12-17T14:22:58.311Z,-0.53
2022-12-17T14:25:45.126Z,-0.54
2022-12-17T14:28:33.219Z,-0.59
2022-12-17T14:31:29.470Z,-0.58
2022-12-17T14:34:16.271Z,-0.64
2022-12-17T14:37:20.567Z,-0.64
2022-12-17T14:40:07.730Z,-0.65
2022-12-17T14:43:07.374Z,-0.63
2022-12-17T14:46:16.523Z,-0.63
2022-12-17T14:49:05.835Z,-0.62
2022-12-17T14:51:52.623Z,-0.64
2022-12-17T14:54:44.194Z,-0.59
2022-12-17T14:57:30.875Z,-0.61
2022-12-17T15:00:18.679Z,-0.71
2022-12-17T15:03:06.035Z,-0.72
2022-12-17T15:06:10.820Z,-0.78
2022-12-17T15:08:58.443Z,-0.73
2022-12-17T15:11:47.826Z,-0.73
2022-12-17T15:14:34.474Z,-0.80
2022-12-17T15:17:21.915Z,-0.85
2022-12-17T15:20:16.746Z,-1.12
2022-12-17T15:23:14.078Z,-0.84
2022-12-17T15:26:01.992Z,-0.90
2022-12-17T15:28:48.781Z,-0.92
2022-12-17T15:31:36.140Z,-0.99
2022-12-17T15:34:22.957Z,-0.99
2022-12-17T15:37:17.012Z,-1.01
2022-12-17T15:40:13.221Z,-1.03
2022-12-17T15:43:12.396Z,-1.02
2022-12-17T15:46:01.698Z,-1.04
2022-12-17T15:48:50.758Z,-1.11
2022-12-17T15:51:42.382Z,-1.15
2022-12-17T15:54:29.289Z,-1.18
2022-12-17T15:57:18.667Z,-1.16
2022-12-17T16:00:05.967Z,-1.24
2022-12-17T16:02:53.571Z,-1.28
2022-12-17T16:05:40.462Z,-1.30
2022-12-17T16:08:30.337Z,-1.32
2022-12-17T16:11:18.587Z,-1.32
2022-12-17T16:14:05.606Z,-1.31
2022-12-17T16:17:38.523Z,-1.34
2022-12-17T16:35:22.367Z,-1.52
2022-12-17T16:42:19.187Z,-1.52
2022-12-17T16:48:52.226Z,-1.55
2022-12-17T16:52:31.942Z,-1.61
2022-12-17T16:56:02.295Z,-1.59
2022-12-17T17:02:40.869Z,-1.59
2022-12-17T17:05:35.659Z,-1.62
2022-12-17T17:08:56.780Z,-1.69
2022-12-17T17:11:56.580Z,-1.71
2022-12-17T17:14:54.610Z,-1.74
2022-12-17T17:19:17.940Z,-1.75
2022-12-17T17:25:11.308Z,-1.73
2022-12-17T17:32:19.354Z,-1.84
2022-12-17T17:35:44.259Z,-1.80
2022-12-17T17:58:07.351Z,-2.06
2022-12-17T18:01:31.577Z,-2.05
2022-12-17T18:04:20.917Z,-1.99
2022-12-17T18:19:08.065Z,-2.05
2022-12-17T18:22:43.594Z,-1.97
2022-12-17T18:26:16.927Z,-2.01
2022-12-17T18:29:37.418Z,-2.05
2022-12-17T18:32:36.119Z,-2.04
2022-12-17T18:39:40.252Z,-2.08
2022-12-17T18:43:10.162Z,-2.18
2022-12-17T18:54:04.429Z,-2.55
2022-12-17T19:00:27.901Z,-2.35
2022-12-17T19:03:23.385Z,-2.26
2022-12-17T19:06:13.706Z,-2.32
2022-12-17T19:09:26.554Z,-2.30
2022-12-17T19:12:13.761Z,-2.28
2022-12-17T19:15:04.973Z,-2.35
2022-12-17T19:17:51.764Z,-2.35
2022-12-17T19:20:38.522Z,-2.27
2022-12-17T19:23:33.080Z,-2.29
